ENG CAT
Escuela de Pilotos
Teléfono 972234126 972 23 41 26
 
Aerbrava - Meteorología

Información meteorológica aeronáutica

 

En este apartado aparece la información meteorológica aeronáutica que es utilizada en las prácticas de los alumnos de la Escuela de Pilotos de nuestro centro durante su formación, por lo que puede no ser actual y se debería utilizar por su propia cuenta y riesgo. AERBRAVA no se hace responsable de su uso.

 

TIEMPO ACTUAL

Satélite Meteorológico

sat24.com

Servei Meteorològic de Catalunya

 

LEGE 142230Z 29003KT 260V330 CAVOK 18/17 Q1016
LEGE 142200Z VRB01KT CAVOK 18/17 Q1016
LEGE 142130Z 25004KT 230V300 9999 FEW080 19/18 Q1016
LEGE 142100Z VRB02KT CAVOK 19/18 Q1016
LEGE 142030Z VRB01KT 9999 FEW040 19/18 Q1016
LEGE 142000Z VRB02KT 9999 FEW040 19/18 Q1016
LEGE 141930Z VRB02KT 9999 FEW040 19/18 Q1016
LEGE 141900Z VRB01KT 9999 FEW040 19/18 Q1015
TAF LEGE 141700Z 1418/1518 27005KT 9999 SCT040 TX30/1512Z TN18/1506Z   TEMPO 1418/1420 30010G20KT 3000 TSRA FEW040CB   BECMG 1418/1420 VRB04KT   TEMPO 1513/1516 35010G20KT

Aviation Weather

 
Aerbrava en el facebook Aerbrava en el twitter Aerbrava instagram Aerbrava en el youtube Aerbrava tumblr Aerbrava flikr Aerbrava pinterest

¡html Vàlid! ¡CSS Vàlid!